Time;durP1;ratioP1;P1;durP2;ratioP2;P2;SDS_P1;SDS_P2;PMS_P1;PMS_P2;Temp;Humidity;BMP_temperature;BMP_pressure;BME280_temperature;BME280_humidity;BME280_pressure;Samples;Min_cycle;Max_cycle;Signal;HPM_P1;HPM_P2
2024/02/01 00:01:54;;;;;;;8.07;5.23;;;;;;;-146.29;100.00;59205.81;5078664;28;20227;-70
2024/02/01 00:04:19;;;;;;;10.97;5.20;;;;;;;-146.29;100.00;59205.81;5084618;28;20209;-70
2024/02/01 00:06:50;;;;;;;8.13;4.93;;;;;;;-146.29;100.00;59205.81;5080083;28;20928;-68
2024/02/01 00:09:16;;;;;;;7.50;4.73;;;;;;;-146.29;100.00;59205.81;5085928;28;20193;-70
2024/02/01 00:11:41;;;;;;;8.43;5.03;;;;;;;-146.29;100.00;59205.81;5077280;28;20417;-68
2024/02/01 00:14:06;;;;;;;7.60;4.87;;;;;;;-146.29;100.00;59205.81;5073054;28;20199;-68
2024/02/01 00:16:32;;;;;;;6.97;4.73;;;;;;;-146.29;100.00;59205.81;5077278;28;20243;-69
2024/02/01 00:18:57;;;;;;;10.10;5.10;;;;;;;-146.29;100.00;59205.81;5078720;28;20186;-69
2024/02/01 00:21:23;;;;;;;5.40;4.23;;;;;;;-146.29;100.00;59205.81;5080268;28;20202;-69
2024/02/01 00:23:48;;;;;;;7.50;4.00;;;;;;;-146.29;100.00;59205.81;5077352;28;20678;-69
2024/02/01 00:26:14;;;;;;;6.97;4.10;;;;;;;-146.29;100.00;59205.81;5081014;28;20189;-68
2024/02/01 00:28:39;;;;;;;7.03;4.13;;;;;;;-146.29;100.00;59205.81;5072232;28;20199;-69
2024/02/01 00:31:05;;;;;;;7.13;4.43;;;;;;;-146.29;100.00;59205.81;5080127;28;20253;-70
2024/02/01 00:33:30;;;;;;;8.60;3.93;;;;;;;-146.29;100.00;59205.81;5076627;28;20301;-69
2024/02/01 00:35:56;;;;;;;8.43;4.40;;;;;;;-146.29;100.00;59205.81;5074410;28;20222;-68
2024/02/01 00:38:21;;;;;;;8.50;3.70;;;;;;;-146.29;100.00;59205.81;5081513;28;20273;-68
2024/02/01 00:40:47;;;;;;;7.80;4.07;;;;;;;-146.29;100.00;59205.81;5079175;28;20605;-69
2024/02/01 00:43:12;;;;;;;5.07;3.63;;;;;;;-146.29;100.00;59205.81;5078834;28;20577;-68
2024/02/01 00:45:38;;;;;;;5.23;3.57;;;;;;;-146.29;100.00;59205.81;5073248;28;20831;-71
2024/02/01 00:48:04;;;;;;;6.73;4.00;;;;;;;-146.29;100.00;59205.81;5087764;28;20184;-69
2024/02/01 00:50:29;;;;;;;8.70;3.73;;;;;;;-146.29;100.00;59205.81;5073003;28;20187;-68
2024/02/01 00:52:54;;;;;;;7.23;3.90;;;;;;;-146.29;100.00;59205.81;5097945;28;20515;-69
2024/02/01 00:55:20;;;;;;;9.10;5.23;;;;;;;-146.29;100.00;59205.81;5065146;28;20261;-70
2024/02/01 00:57:45;;;;;;;5.63;4.40;;;;;;;-146.29;100.00;59205.81;5085296;28;20185;-69
2024/02/01 01:00:12;;;;;;;10.60;5.50;;;;;;;-146.29;100.00;59205.81;5084230;28;20197;-69
2024/02/01 01:02:37;;;;;;;7.97;5.47;;;;;;;-146.29;100.00;59205.81;5081999;28;20213;-70
2024/02/01 01:05:03;;;;;;;6.00;4.73;;;;;;;-146.29;100.00;59205.81;5085437;28;20432;-69
2024/02/01 01:07:29;;;;;;;8.50;4.50;;;;;;;-146.29;100.00;59205.81;5056391;28;20277;-69
2024/02/01 01:09:54;;;;;;;10.93;5.13;;;;;;;-146.29;100.00;59205.81;5095641;28;20492;-70
2024/02/01 01:12:20;;;;;;;7.87;5.07;;;;;;;-146.29;100.00;59205.81;5087500;28;20181;-69
2024/02/01 01:14:45;;;;;;;7.70;5.60;;;;;;;-146.29;100.00;59205.81;5084787;28;20207;-68
2024/02/01 01:17:11;;;;;;;10.63;5.90;;;;;;;-146.29;100.00;59205.81;5081636;28;20182;-69
2024/02/01 01:19:36;;;;;;;9.00;5.27;;;;;;;-146.29;100.00;59205.81;5084636;28;20201;-69
2024/02/01 01:22:02;;;;;;;9.40;4.80;;;;;;;-146.29;100.00;59205.81;5076444;28;20927;-68
2024/02/01 01:24:27;;;;;;;8.67;4.73;;;;;;;-146.29;100.00;59205.81;5086081;28;20719;-69
2024/02/01 01:26:52;;;;;;;6.43;4.33;;;;;;;-146.29;100.00;59205.81;5088244;28;20557;-68
2024/02/01 01:29:18;;;;;;;8.60;5.20;;;;;;;-146.29;100.00;59205.81;5072077;28;20370;-69
2024/02/01 01:31:43;;;;;;;5.50;4.73;;;;;;;-146.29;100.00;59205.81;5083510;28;20215;-70
2024/02/01 01:34:09;;;;;;;9.63;5.30;;;;;;;-146.29;100.00;59205.81;5086133;28;20201;-70
2024/02/01 01:36:34;;;;;;;7.70;5.20;;;;;;;-146.29;100.00;59205.81;5084600;28;20264;-69
2024/02/01 01:39:00;;;;;;;5.33;4.43;;;;;;;-146.29;100.00;59205.81;5087189;28;20205;-71
2024/02/01 01:41:25;;;;;;;10.70;5.00;;;;;;;-146.29;100.00;59205.81;5091498;28;20201;-70
2024/02/01 01:43:50;;;;;;;7.13;4.67;;;;;;;-146.29;100.00;59205.81;5087421;28;20209;-68
2024/02/01 01:46:16;;;;;;;10.60;5.47;;;;;;;-146.29;100.00;59205.81;5084003;28;20273;-68
2024/02/01 01:48:41;;;;;;;9.73;5.00;;;;;;;-146.29;100.00;59205.81;5078515;28;20242;-68
2024/02/01 01:51:07;;;;;;;7.67;5.13;;;;;;;-146.29;100.00;59205.81;5096640;28;20181;-66
2024/02/01 01:53:33;;;;;;;10.47;4.73;;;;;;;-146.29;100.00;59205.81;5083928;28;20202;-68
2024/02/01 01:55:59;;;;;;;7.50;4.90;;;;;;;-146.29;100.00;59205.81;5087445;28;20201;-70
2024/02/01 01:58:27;;;;;;;8.77;5.57;;;;;;;-146.29;100.00;59205.81;5064751;28;20261;-69
2024/02/01 02:00:53;;;;;;;10.67;5.10;;;;;;;-146.29;100.00;59205.81;5087145;28;20550;-69
2024/02/01 02:03:20;;;;;;;6.93;5.30;;;;;;;-146.29;100.00;59205.81;5081657;28;20443;-69
2024/02/01 02:05:46;;;;;;;7.10;5.27;;;;;;;-146.29;100.00;59205.81;5065676;28;20433;-69
2024/02/01 02:08:11;;;;;;;10.23;5.70;;;;;;;-146.29;100.00;59205.81;5081401;28;20432;-67
2024/02/01 02:10:38;;;;;;;8.93;6.20;;;;;;;-146.29;100.00;59205.81;5091371;28;20263;-69
2024/02/01 02:13:03;;;;;;;11.03;6.33;;;;;;;-146.29;100.00;59205.81;5092033;28;20213;-71
2024/02/01 02:15:32;;;;;;;7.23;6.13;;;;;;;-146.29;100.00;59205.81;5097468;28;20496;-68
2024/02/01 02:17:58;;;;;;;8.37;5.53;;;;;;;-146.29;100.00;59205.81;5079581;28;20186;-68
2024/02/01 02:20:26;;;;;;;7.00;5.00;;;;;;;-146.29;100.00;59205.81;5096190;28;20447;-67
2024/02/01 02:22:54;;;;;;;10.20;5.00;;;;;;;-146.29;100.00;59205.81;5079975;28;20205;-68
2024/02/01 02:25:20;;;;;;;7.73;4.83;;;;;;;-146.29;100.00;59205.81;5067922;28;21081;-68
2024/02/01 02:27:46;;;;;;;11.77;4.73;;;;;;;-146.29;100.00;59205.81;5086387;28;20420;-69
2024/02/01 02:30:12;;;;;;;9.40;6.23;;;;;;;-146.29;100.00;59205.81;5087394;28;20524;-68
2024/02/01 02:32:39;;;;;;;6.27;5.20;;;;;;;-146.29;100.00;59205.81;5088845;28;20208;-69
2024/02/01 02:35:09;;;;;;;10.07;5.80;;;;;;;-146.29;100.00;59205.81;5087502;28;20613;-69
2024/02/01 02:37:34;;;;;;;7.33;5.07;;;;;;;-146.29;100.00;59205.81;5074140;28;20528;-68
2024/02/01 02:40:01;;;;;;;9.90;5.10;;;;;;;-146.29;100.00;59205.81;5087499;28;21043;-68
2024/02/01 02:42:26;;;;;;;5.77;5.10;;;;;;;-146.29;100.00;59205.81;5093555;28;20589;-68
2024/02/01 02:44:51;;;;;;;6.13;4.90;;;;;;;-146.29;100.00;59205.81;5085780;28;20524;-68
2024/02/01 02:47:17;;;;;;;9.80;5.20;;;;;;;-146.29;100.00;59205.81;5090644;28;20212;-68
2024/02/01 02:49:44;;;;;;;7.20;5.30;;;;;;;-146.29;100.00;59205.81;5093345;28;20612;-67
2024/02/01 02:52:09;;;;;;;8.30;5.63;;;;;;;-146.29;100.00;59205.81;5087479;28;20714;-69
2024/02/01 02:54:35;;;;;;;7.63;5.43;;;;;;;-146.29;100.00;59205.81;5071724;28;20452;-68
2024/02/01 02:57:00;;;;;;;7.70;5.63;;;;;;;-146.29;100.00;59205.81;5090011;28;20395;-69
2024/02/01 02:59:25;;;;;;;8.37;5.90;;;;;;;-146.29;100.00;59205.81;5090407;28;20192;-68
2024/02/01 03:01:51;;;;;;;6.20;4.90;;;;;;;-146.29;100.00;59205.81;5088229;28;20776;-67
2024/02/01 03:04:16;;;;;;;8.33;6.10;;;;;;;-146.29;100.00;59205.81;5076275;28;20308;-67
2024/02/01 03:06:42;;;;;;;8.97;5.37;;;;;;;-146.29;100.00;59205.81;5097559;28;20174;-68
2024/02/01 03:09:16;;;;;;;6.73;5.20;;;;;;;-146.29;100.00;59205.81;5080007;28;20235;-67
2024/02/01 03:11:42;;;;;;;8.93;5.30;;;;;;;-146.29;100.00;59205.81;5093232;28;21002;-70
2024/02/01 03:14:11;;;;;;;15.37;5.33;;;;;;;-146.29;100.00;59205.81;5102232;28;20517;-66
2024/02/01 03:16:36;;;;;;;8.13;5.33;;;;;;;-146.29;100.00;59205.81;5092443;28;20186;-68
2024/02/01 03:19:03;;;;;;;5.97;5.30;;;;;;;-146.29;100.00;59205.81;5085066;28;20992;-68
2024/02/01 03:21:30;;;;;;;7.47;5.03;;;;;;;-146.29;100.00;59205.81;5084225;28;20230;-68
2024/02/01 03:23:58;;;;;;;6.10;4.80;;;;;;;-146.29;100.00;59205.81;5090400;28;20853;-68
2024/02/01 03:26:25;;;;;;;7.60;4.87;;;;;;;-146.29;100.00;59205.81;5085901;28;20499;-68
2024/02/01 03:28:52;;;;;;;5.90;4.80;;;;;;;-146.29;100.00;59205.81;5080051;28;20447;-69
2024/02/01 03:31:17;;;;;;;4.77;4.27;;;;;;;-146.29;100.00;59205.81;5071832;28;20420;-68
2024/02/01 03:33:47;;;;;;;14.43;5.20;;;;;;;-146.29;100.00;59205.81;5076687;28;20936;-68
2024/02/01 03:36:14;;;;;;;8.07;4.40;;;;;;;-146.29;100.00;59205.81;5098183;28;20274;-68
2024/02/01 03:38:42;;;;;;;5.43;3.80;;;;;;;-146.29;100.00;59205.81;5066992;28;20831;-68
2024/02/01 03:41:08;;;;;;;8.00;4.57;;;;;;;-146.29;100.00;59205.81;5093020;28;20902;-69
2024/02/01 03:43:33;;;;;;;8.07;4.13;;;;;;;-146.29;100.00;59205.81;5091570;28;20527;-67
2024/02/01 03:45:59;;;;;;;7.10;4.53;;;;;;;-146.29;100.00;59205.81;5090476;28;20239;-68
2024/02/01 03:48:24;;;;;;;4.50;4.10;;;;;;;-146.29;100.00;59205.81;5089697;28;20698;-68
2024/02/01 03:50:50;;;;;;;4.23;3.60;;;;;;;-146.29;100.00;59205.81;5097651;28;20209;-67
2024/02/01 03:53:18;;;;;;;12.13;4.60;;;;;;;-146.29;100.00;59205.81;5029030;28;20268;-67
2024/02/01 03:55:43;;;;;;;7.70;4.13;;;;;;;-146.29;100.00;59205.81;5087989;28;20427;-69
2024/02/01 03:58:09;;;;;;;9.33;4.70;;;;;;;-146.29;100.00;59205.81;5092772;28;20422;-68
2024/02/01 04:00:34;;;;;;;6.90;3.80;;;;;;;-146.29;100.00;59205.81;5066806;28;20538;-68
2024/02/01 04:03:04;;;;;;;5.73;3.67;;;;;;;-146.29;100.00;59205.81;5087217;28;20700;-69
2024/02/01 04:05:36;;;;;;;4.77;3.70;;;;;;;-146.29;100.00;59205.81;5058060;28;20185;-67
2024/02/01 04:08:06;;;;;;;4.40;3.60;;;;;;;-146.29;100.00;59205.81;5086045;28;20477;-68
2024/02/01 04:10:35;;;;;;;4.80;3.67;;;;;;;-146.29;100.00;59205.81;5068236;28;20551;-70
2024/02/01 04:13:01;;;;;;;7.20;4.10;;;;;;;-146.29;100.00;59205.81;5075693;28;20536;-68
2024/02/01 04:15:26;;;;;;;8.20;3.80;;;;;;;-146.29;100.00;59205.81;5088161;28;20432;-70
2024/02/01 04:17:52;;;;;;;6.03;3.83;;;;;;;-146.29;100.00;59205.81;5083546;28;20485;-69
2024/02/01 04:20:18;;;;;;;4.53;3.60;;;;;;;-146.29;100.00;59205.81;5085470;28;20280;-69
2024/02/01 04:22:43;;;;;;;5.30;3.33;;;;;;;-146.29;100.00;59205.81;5098273;28;20206;-69
2024/02/01 04:25:08;;;;;;;6.40;3.63;;;;;;;-146.29;100.00;59205.81;5063525;28;20186;-69
2024/02/01 04:27:35;;;;;;;3.47;3.17;;;;;;;-146.29;100.00;59205.81;5063917;28;20658;-68
2024/02/01 04:30:04;;;;;;;5.23;3.83;;;;;;;-146.29;100.00;59205.81;5083019;28;20174;-68
2024/02/01 04:32:29;;;;;;;3.70;3.37;;;;;;;-146.29;100.00;59205.81;5081081;28;20424;-68
2024/02/01 04:34:55;;;;;;;5.20;2.90;;;;;;;-146.29;100.00;59205.81;5070659;28;20430;-67
2024/02/01 04:37:22;;;;;;;6.57;3.57;;;;;;;-146.29;100.00;59205.81;5083406;28;20177;-69
2024/02/01 04:39:49;;;;;;;4.33;3.10;;;;;;;-146.29;100.00;59205.81;5084731;28;20288;-68
2024/02/01 04:42:15;;;;;;;4.77;3.70;;;;;;;-146.29;100.00;59205.81;5094157;28;20424;-69
2024/02/01 04:44:42;;;;;;;5.30;3.30;;;;;;;-146.29;100.00;59205.81;5088167;28;21091;-68
2024/02/01 04:47:07;;;;;;;3.60;3.30;;;;;;;-146.29;100.00;59205.81;5086392;28;20178;-70
2024/02/01 04:49:32;;;;;;;5.90;3.23;;;;;;;-146.29;100.00;59205.81;5064459;28;20423;-70
2024/02/01 04:51:58;;;;;;;3.97;3.33;;;;;;;-146.29;100.00;59205.81;5056270;28;20183;-69
2024/02/01 04:54:23;;;;;;;3.37;3.07;;;;;;;-146.29;100.00;59205.81;5070846;28;20307;-71
2024/02/01 04:56:49;;;;;;;5.50;3.50;;;;;;;-146.29;100.00;59205.81;5082234;28;20911;-71
2024/02/01 04:59:14;;;;;;;6.03;3.30;;;;;;;-146.29;100.00;59205.81;5078236;28;20264;-69
2024/02/01 05:01:40;;;;;;;3.47;3.10;;;;;;;-146.29;100.00;59205.81;5072084;28;20347;-69
2024/02/01 05:04:13;;;;;;;3.67;3.37;;;;;;;-146.29;100.00;59205.81;5072815;28;20293;-70
2024/02/01 05:06:42;;;;;;;5.20;3.47;;;;;;;-146.29;100.00;59205.81;5080564;28;20448;-68
2024/02/01 05:09:23;;;;;;;6.83;3.80;;;;;;;-146.29;100.00;59205.81;5058892;28;20518;-68
2024/02/01 05:11:54;;;;;;;4.10;2.90;;;;;;;-146.29;100.00;59205.81;5081993;28;20420;-70
2024/02/01 05:14:20;;;;;;;5.60;3.00;;;;;;;-146.29;100.00;59205.81;5054076;28;20451;-68
2024/02/01 05:16:47;;;;;;;3.23;2.43;;;;;;;-146.29;100.00;59205.81;5079935;28;20823;-68
2024/02/01 05:19:13;;;;;;;3.97;2.60;;;;;;;-146.29;100.00;59205.81;5069442;28;20279;-69
2024/02/01 05:21:38;;;;;;;7.73;2.93;;;;;;;-146.29;100.00;59205.81;5064370;28;20538;-69
2024/02/01 05:24:04;;;;;;;6.20;3.13;;;;;;;-146.29;100.00;59205.81;5074853;28;20718;-69
2024/02/01 05:26:30;;;;;;;4.80;2.90;;;;;;;-146.29;100.00;59205.81;5017647;28;20178;-69
2024/02/01 05:28:55;;;;;;;4.63;3.10;;;;;;;-146.29;100.00;59205.81;5074467;28;21244;-70
2024/02/01 05:31:21;;;;;;;7.80;3.10;;;;;;;-146.29;100.00;59205.81;5067260;28;20181;-71
2024/02/01 05:33:47;;;;;;;3.10;2.80;;;;;;;-146.29;100.00;59205.81;5075905;28;20222;-68
2024/02/01 05:36:13;;;;;;;4.23;2.67;;;;;;;-146.29;100.00;59205.81;5078559;28;20661;-69
2024/02/01 05:38:41;;;;;;;3.73;2.83;;;;;;;-146.29;100.00;59205.81;5062074;28;20428;-69
2024/02/01 05:41:11;;;;;;;3.10;2.80;;;;;;;-146.29;100.00;59205.81;5081940;28;20229;-69
2024/02/01 05:43:38;;;;;;;5.30;2.70;;;;;;;-146.29;100.00;59205.81;5076817;28;20447;-69
2024/02/01 05:46:08;;;;;;;3.33;2.83;;;;;;;-146.29;100.00;59205.81;5056998;28;20424;-70
2024/02/01 05:48:33;;;;;;;5.77;3.00;;;;;;;-146.29;100.00;59205.81;5074725;28;20447;-70
2024/02/01 05:50:59;;;;;;;4.60;2.80;;;;;;;-146.29;100.00;59205.81;5078782;28;20404;-70
2024/02/01 05:53:25;;;;;;;6.20;3.50;;;;;;;-146.29;100.00;59205.81;5091224;28;20768;-70
2024/02/01 05:55:50;;;;;;;5.50;3.13;;;;;;;-146.29;100.00;59205.81;5079579;28;20174;-70
2024/02/01 05:58:16;;;;;;;5.17;3.33;;;;;;;-146.29;100.00;59205.81;5051607;28;20447;-69
2024/02/01 06:00:42;;;;;;;4.93;3.80;;;;;;;-146.29;100.00;59205.81;5077200;28;20194;-70
2024/02/01 06:03:11;;;;;;;5.90;3.03;;;;;;;-146.29;100.00;59205.81;5074362;28;20308;-68
2024/02/01 06:05:36;;;;;;;4.97;3.37;;;;;;;-146.29;100.00;59205.81;5081211;28;20420;-67
2024/02/01 06:08:02;;;;;;;6.10;3.53;;;;;;;-146.29;100.00;59205.81;5076868;28;20864;-68
2024/02/01 06:10:27;;;;;;;7.33;3.40;;;;;;;-146.29;100.00;59205.81;5081164;28;20181;-68
2024/02/01 06:12:53;;;;;;;4.37;3.53;;;;;;;-146.29;100.00;59205.81;5055231;28;20289;-68
2024/02/01 06:15:19;;;;;;;8.40;4.07;;;;;;;-146.29;100.00;59205.81;5077469;28;20757;-67
2024/02/01 06:17:44;;;;;;;5.77;3.80;;;;;;;-146.29;100.00;59205.81;5093583;28;20220;-68
2024/02/01 06:20:10;;;;;;;5.90;3.73;;;;;;;-146.29;100.00;59205.81;5079078;28;20202;-67
2024/02/01 06:22:39;;;;;;;6.33;3.90;;;;;;;-146.29;100.00;59205.81;5083794;28;20189;-68
2024/02/01 06:25:05;;;;;;;6.57;3.70;;;;;;;-146.29;100.00;59205.81;5088767;28;20502;-68
2024/02/01 06:27:30;;;;;;;12.73;3.83;;;;;;;-146.29;100.00;59205.81;5095838;28;20426;-67
2024/02/01 06:29:58;;;;;;;6.97;3.40;;;;;;;-146.29;100.00;59205.81;5071184;28;21044;-67
2024/02/01 06:32:25;;;;;;;5.43;3.63;;;;;;;-146.29;100.00;59205.81;5046962;28;20572;-66
2024/02/01 06:35:06;;;;;;;7.93;3.80;;;;;;;-146.29;100.00;59205.81;5082807;28;20431;-69
2024/02/01 06:37:39;;;;;;;6.10;3.53;;;;;;;-146.29;100.00;59205.81;5087215;28;20434;-69
2024/02/01 06:43:08;;;;;;;9.77;3.77;;;;;;;-146.29;100.00;59205.81;5088360;28;20444;-69
2024/02/01 06:45:44;;;;;;;8.30;3.77;;;;;;;-146.29;100.00;59205.81;5079980;28;20427;-67
2024/02/01 06:48:11;;;;;;;5.50;4.30;;;;;;;-146.29;100.00;59205.81;5068319;28;20493;-68
2024/02/01 06:50:57;;;;;;;5.37;3.70;;;;;;;-146.29;100.00;59205.81;5076826;28;20430;-68
2024/02/01 06:53:32;;;;;;;4.80;3.80;;;;;;;-146.29;100.00;59205.81;5080719;28;20444;-67
2024/02/01 06:55:59;;;;;;;7.53;3.63;;;;;;;-146.29;100.00;59205.81;5072012;28;20420;-67
2024/02/01 06:58:39;;;;;;;5.07;3.60;;;;;;;-146.29;100.00;59205.81;5069077;28;20446;-67
2024/02/01 07:01:24;;;;;;;9.53;3.50;;;;;;;-146.29;100.00;59205.81;5087189;28;20459;-67
2024/02/01 07:04:42;;;;;;;6.97;4.10;;;;;;;-146.29;100.00;59205.81;5091982;28;21006;-69
2024/02/01 07:06:38;;;;;;;6.63;3.90;;;;;;;-146.29;100.00;59205.81;5071808;28;20869;-69
2024/02/01 07:09:17;;;;;;;13.93;3.60;;;;;;;-146.29;100.00;59205.81;5074121;28;20433;-68
2024/02/01 07:11:59;;;;;;;8.83;4.60;;;;;;;-146.29;100.00;59205.81;5082652;28;20419;-69
2024/02/01 07:14:35;;;;;;;9.70;4.00;;;;;;;-146.29;100.00;59205.81;5079875;28;20529;-69
2024/02/01 07:17:26;;;;;;;6.10;4.20;;;;;;;-146.29;100.00;59205.81;5074673;28;20435;-69
2024/02/01 07:20:01;;;;;;;6.00;4.10;;;;;;;-146.29;100.00;59205.81;5075311;28;20450;-69
2024/02/01 07:22:35;;;;;;;7.63;4.53;;;;;;;-146.29;100.00;59205.81;5085648;28;20440;-69
2024/02/01 07:25:11;;;;;;;5.93;3.80;;;;;;;-146.29;100.00;59205.81;5078818;28;20435;-70
2024/02/01 07:57:55;;;;;;;7.63;2.93;;;;;;;-146.29;100.00;59205.81;5070141;28;20439;-68
2024/02/01 08:00:33;;;;;;;7.50;4.10;;;;;;;-146.29;100.00;59205.81;5080218;28;20452;-69
2024/02/01 08:03:11;;;;;;;4.20;3.00;;;;;;;-146.29;100.00;59205.81;5066063;28;20435;-69
2024/02/01 08:08:22;;;;;;;4.70;3.20;;;;;;;-146.29;100.00;59205.81;5076668;28;20431;-69
2024/02/01 08:10:47;;;;;;;5.33;3.10;;;;;;;-146.29;100.00;59205.81;5091161;28;20860;-68
2024/02/01 08:13:13;;;;;;;3.63;2.97;;;;;;;-146.29;100.00;59205.81;5073193;28;20283;-68
2024/02/01 08:15:42;;;;;;;5.23;2.83;;;;;;;-146.29;100.00;59205.81;5088493;28;20220;-68
2024/02/01 08:18:10;;;;;;;5.10;2.60;;;;;;;-146.29;100.00;59205.81;5083151;28;20213;-69
2024/02/01 08:20:39;;;;;;;5.77;2.90;;;;;;;-146.29;100.00;59205.81;5075126;28;20447;-68
2024/02/01 08:23:05;;;;;;;5.63;3.23;;;;;;;-146.29;100.00;59205.81;5075892;28;21197;-68
2024/02/01 08:25:30;;;;;;;4.50;2.63;;;;;;;-146.29;100.00;59205.81;5071229;28;20518;-69
2024/02/01 08:28:00;;;;;;;3.93;2.50;;;;;;;-146.29;100.00;59205.81;5081321;28;20178;-68
2024/02/01 08:30:27;;;;;;;4.80;3.00;;;;;;;-146.29;100.00;59205.81;5077544;28;20236;-68
2024/02/01 08:32:53;;;;;;;3.63;2.63;;;;;;;-146.29;100.00;59205.81;5097807;28;20446;-70
2024/02/01 08:35:19;;;;;;;4.90;3.10;;;;;;;-146.29;100.00;59205.81;5085880;28;20428;-70
2024/02/01 08:37:45;;;;;;;4.97;2.80;;;;;;;-146.29;100.00;59205.81;5081806;28;20805;-66
2024/02/01 08:40:20;;;;;;;3.70;2.43;;;;;;;-146.29;100.00;59205.81;5086253;28;20210;-70
2024/02/01 08:42:51;;;;;;;2.50;2.30;;;;;;;-146.29;100.00;59205.81;5094353;28;20419;-69
2024/02/01 08:45:17;;;;;;;3.20;2.57;;;;;;;-146.29;100.00;59205.81;5088830;28;20424;-69
2024/02/01 08:47:44;;;;;;;3.60;2.60;;;;;;;-146.29;100.00;59205.81;5091752;28;20430;-69
2024/02/01 08:50:10;;;;;;;3.27;2.37;;;;;;;-146.29;100.00;59205.81;5088210;28;20445;-70
2024/02/01 08:52:45;;;;;;;7.07;3.20;;;;;;;-146.29;100.00;59205.81;5096070;28;20462;-69
2024/02/01 08:55:17;;;;;;;3.40;2.83;;;;;;;-146.29;100.00;59205.81;5087647;28;20426;-69
2024/02/01 08:57:44;;;;;;;3.30;2.40;;;;;;;-146.29;100.00;59205.81;5070745;28;20420;-69
2024/02/01 09:00:26;;;;;;;5.50;2.60;;;;;;;-146.29;100.00;59205.81;5077523;28;20502;-69
2024/02/01 09:03:11;;;;;;;2.67;2.27;;;;;;;-146.29;100.00;59205.81;5090055;28;20817;-68
2024/02/01 09:05:42;;;;;;;3.70;2.27;;;;;;;-146.29;100.00;59205.81;5081425;28;20545;-69
2024/02/01 09:08:15;;;;;;;4.00;2.90;;;;;;;-146.29;100.00;59205.81;5078226;28;20444;-68
2024/02/01 09:10:57;;;;;;;4.33;2.33;;;;;;;-146.29;100.00;59205.81;5078157;28;20412;-69
2024/02/01 09:13:23;;;;;;;4.47;2.40;;;;;;;-146.29;100.00;59205.81;5075826;28;20535;-70
2024/02/01 09:15:49;;;;;;;3.00;2.23;;;;;;;-146.29;100.00;59205.81;5075925;28;20431;-69
2024/02/01 09:18:15;;;;;;;2.73;2.40;;;;;;;-146.29;100.00;59205.81;5089354;28;20794;-70
2024/02/01 09:20:42;;;;;;;4.10;2.10;;;;;;;-146.29;100.00;59205.81;5076308;28;21082;-68
2024/02/01 09:23:13;;;;;;;3.50;2.40;;;;;;;-146.29;100.00;59205.81;5088312;28;20535;-69
2024/02/01 09:25:40;;;;;;;4.40;2.23;;;;;;;-146.29;100.00;59205.81;5098403;28;20186;-71
2024/02/01 09:28:13;;;;;;;6.53;2.73;;;;;;;-146.29;100.00;59205.81;5081366;28;20507;-69
2024/02/01 09:30:46;;;;;;;4.60;2.53;;;;;;;-146.29;100.00;59205.81;5077035;28;20452;-69
2024/02/01 09:33:16;;;;;;;4.30;2.50;;;;;;;-146.29;100.00;59205.81;5069258;28;20431;-69
2024/02/01 09:35:43;;;;;;;2.40;2.20;;;;;;;-146.29;100.00;59205.81;5077625;28;20481;-69
2024/02/01 09:38:09;;;;;;;3.57;2.60;;;;;;;-146.29;100.00;59205.81;5090681;28;20471;-68
2024/02/01 09:40:41;;;;;;;9.53;2.67;;;;;;;-146.29;100.00;59205.81;5088684;28;21035;-69
2024/02/01 09:43:17;;;;;;;4.90;2.07;;;;;;;-146.29;100.00;59205.81;5082519;28;20227;-69
2024/02/01 09:45:43;;;;;;;3.00;2.40;;;;;;;-146.29;100.00;59205.81;5093789;28;20423;-69
2024/02/01 09:48:15;;;;;;;2.17;1.97;;;;;;;-146.29;100.00;59205.81;5068540;28;20427;-70
2024/02/01 09:50:43;;;;;;;4.47;3.00;;;;;;;-146.29;100.00;59205.81;5076897;28;20411;-69
2024/02/01 09:53:08;;;;;;;4.10;2.30;;;;;;;-146.29;100.00;59205.81;5074809;28;20435;-70
2024/02/01 09:55:34;;;;;;;3.70;2.23;;;;;;;-146.29;100.00;59205.81;5099375;28;20437;-68
2024/02/01 09:57:59;;;;;;;2.63;2.07;;;;;;;-146.29;100.00;59205.81;5091487;28;20258;-69
2024/02/01 10:00:27;;;;;;;2.37;1.70;;;;;;;-146.29;100.00;59205.81;5100015;28;20315;-68
2024/02/01 10:02:53;;;;;;;2.20;2.00;;;;;;;-146.29;100.00;59205.81;5099899;28;20204;-69
2024/02/01 10:05:20;;;;;;;4.13;2.20;;;;;;;-146.29;100.00;59205.81;5086705;28;20916;-68
2024/02/01 10:07:46;;;;;;;2.53;2.00;;;;;;;-146.29;100.00;59205.81;5093952;28;20422;-69
2024/02/01 10:10:13;;;;;;;2.00;1.80;;;;;;;-146.29;100.00;59205.81;5093366;28;20477;-69
2024/02/01 10:12:40;;;;;;;2.77;1.90;;;;;;;-146.29;100.00;59205.81;5094990;28;20673;-71
2024/02/01 10:15:10;;;;;;;3.00;1.80;;;;;;;-146.29;100.00;59205.81;5099442;28;20476;-69
2024/02/01 10:17:46;;;;;;;1.83;1.57;;;;;;;-146.29;100.00;59205.81;5099225;28;20472;-69
2024/02/01 10:20:33;;;;;;;2.10;1.90;;;;;;;-146.29;100.00;59205.81;5094739;28;20451;-70
2024/02/01 10:23:03;;;;;;;2.33;1.30;;;;;;;-146.29;100.00;59205.81;5090474;28;20441;-69
2024/02/01 10:25:33;;;;;;;2.97;1.70;;;;;;;-146.29;100.00;59205.81;5080602;28;20509;-69
2024/02/01 10:28:06;;;;;;;3.30;1.70;;;;;;;-146.29;100.00;59205.81;5088299;28;20427;-69
2024/02/01 10:30:33;;;;;;;2.47;1.60;;;;;;;-146.29;100.00;59205.81;5071926;28;20427;-70
2024/02/01 10:33:01;;;;;;;2.13;1.60;;;;;;;-146.29;100.00;59205.81;5098040;28;20438;-69
2024/02/01 10:35:28;;;;;;;1.70;1.60;;;;;;;-146.29;100.00;59205.81;5093330;28;20467;-69
2024/02/01 10:37:54;;;;;;;6.80;1.57;;;;;;;-146.29;100.00;59205.81;5089537;28;20439;-69
2024/02/01 10:40:26;;;;;;;6.40;1.50;;;;;;;-146.29;100.00;59205.81;5077931;28;20559;-69
2024/02/01 10:42:54;;;;;;;2.43;1.70;;;;;;;-146.29;100.00;59205.81;5092733;28;20649;-68
2024/02/01 10:45:22;;;;;;;1.50;1.40;;;;;;;-146.29;100.00;59205.81;5072128;28;20418;-68
2024/02/01 10:47:50;;;;;;;3.43;1.60;;;;;;;-146.29;100.00;59205.81;5066674;28;20412;-69
2024/02/01 10:50:16;;;;;;;1.90;1.80;;;;;;;-146.29;100.00;59205.81;5083758;28;20931;-70
2024/02/01 10:52:43;;;;;;;2.77;2.10;;;;;;;-146.29;100.00;59205.81;5086555;28;20473;-70
2024/02/01 10:55:09;;;;;;;1.90;1.70;;;;;;;-146.29;100.00;59205.81;5083711;28;20236;-69
2024/02/01 10:57:41;;;;;;;2.30;1.47;;;;;;;-146.29;100.00;59205.81;5071752;28;20912;-69
2024/02/01 11:00:16;;;;;;;3.47;1.80;;;;;;;-146.29;100.00;59205.81;5072582;28;20455;-69
2024/02/01 11:02:44;;;;;;;3.00;1.63;;;;;;;-146.29;100.00;59205.81;5071298;28;20423;-69
2024/02/01 11:05:10;;;;;;;8.17;2.03;;;;;;;-146.29;100.00;59205.81;5089886;28;20424;-69
2024/02/01 11:07:35;;;;;;;3.03;1.70;;;;;;;-146.29;100.00;59205.81;5077621;28;20431;-69
2024/02/01 11:10:01;;;;;;;1.93;1.63;;;;;;;-146.29;100.00;59205.81;5085251;28;20174;-69
2024/02/01 11:12:26;;;;;;;2.13;1.93;;;;;;;-146.29;100.00;59205.81;5080324;28;20241;-69
2024/02/01 11:14:51;;;;;;;2.73;2.00;;;;;;;-146.29;100.00;59205.81;5089364;28;20213;-68
2024/02/01 11:17:23;;;;;;;4.50;1.63;;;;;;;-146.29;100.00;59205.81;5072099;28;20209;-69
2024/02/01 11:19:54;;;;;;;2.30;2.10;;;;;;;-146.29;100.00;59205.81;5089100;28;20674;-69
2024/02/01 11:22:19;;;;;;;2.90;1.70;;;;;;;-146.29;100.00;59205.81;5071990;28;20916;-68
2024/02/01 11:24:45;;;;;;;1.40;1.30;;;;;;;-146.29;100.00;59205.81;5089404;28;20585;-69
2024/02/01 11:27:12;;;;;;;2.37;1.60;;;;;;;-146.29;100.00;59205.81;5089373;28;20185;-69
2024/02/01 11:29:39;;;;;;;3.57;1.20;;;;;;;-146.29;100.00;59205.81;5089859;28;20189;-69
2024/02/01 11:32:05;;;;;;;1.40;1.17;;;;;;;-146.29;100.00;59205.81;5090418;28;20427;-69
2024/02/01 11:34:35;;;;;;;4.07;1.33;;;;;;;-146.29;100.00;59205.81;5089550;28;20440;-70
2024/02/01 11:37:02;;;;;;;2.13;1.93;;;;;;;-146.29;100.00;59205.81;5074969;28;20427;-69
2024/02/01 11:39:27;;;;;;;1.83;1.70;;;;;;;-146.29;100.00;59205.81;5090877;28;20947;-68
2024/02/01 11:41:54;;;;;;;2.30;1.00;;;;;;;-146.29;100.00;59205.81;5088781;28;20452;-69
2024/02/01 11:44:20;;;;;;;1.20;1.10;;;;;;;-146.29;100.00;59205.81;5094159;28;20257;-69
2024/02/01 11:46:47;;;;;;;1.43;1.33;;;;;;;-146.29;100.00;59205.81;5091136;28;20439;-69
2024/02/01 11:49:17;;;;;;;1.00;0.90;;;;;;;-146.29;100.00;59205.81;5107202;28;21193;-68